sensor_id;sensor_type;location;lat;lon;timestamp;P1;durP1;ratioP1;P2;durP2;ratioP2
73776;SDS011;62088;50.240;2.696;2023-12-04T00:01:26;8.32;;;4.00;;
73776;SDS011;62088;50.240;2.696;2023-12-04T00:03:54;8.65;;;4.18;;
73776;SDS011;62088;50.240;2.696;2023-12-04T00:06:21;7.05;;;3.25;;
73776;SDS011;62088;50.240;2.696;2023-12-04T00:08:50;6.32;;;3.28;;
73776;SDS011;62088;50.240;2.696;2023-12-04T00:11:17;7.15;;;3.33;;
73776;SDS011;62088;50.240;2.696;2023-12-04T00:13:44;6.20;;;3.20;;
73776;SDS011;62088;50.240;2.696;2023-12-04T00:16:11;6.90;;;3.08;;
73776;SDS011;62088;50.240;2.696;2023-12-04T00:18:38;8.43;;;3.10;;
73776;SDS011;62088;50.240;2.696;2023-12-04T00:21:05;6.93;;;2.78;;
73776;SDS011;62088;50.240;2.696;2023-12-04T00:23:32;6.38;;;2.95;;
73776;SDS011;62088;50.240;2.696;2023-12-04T00:25:59;10.43;;;3.90;;
73776;SDS011;62088;50.240;2.696;2023-12-04T00:28:26;5.45;;;2.75;;
73776;SDS011;62088;50.240;2.696;2023-12-04T00:30:55;7.40;;;3.08;;
73776;SDS011;62088;50.240;2.696;2023-12-04T00:33:22;5.47;;;2.15;;
73776;SDS011;62088;50.240;2.696;2023-12-04T00:35:49;6.53;;;2.83;;
73776;SDS011;62088;50.240;2.696;2023-12-04T00:38:16;5.75;;;2.30;;
73776;SDS011;62088;50.240;2.696;2023-12-04T00:40:43;6.35;;;3.15;;
73776;SDS011;62088;50.240;2.696;2023-12-04T00:43:10;6.45;;;3.25;;
73776;SDS011;62088;50.240;2.696;2023-12-04T00:45:37;6.47;;;3.13;;
73776;SDS011;62088;50.240;2.696;2023-12-04T00:48:04;6.13;;;3.00;;
73776;SDS011;62088;50.240;2.696;2023-12-04T00:50:31;6.57;;;3.15;;
73776;SDS011;62088;50.240;2.696;2023-12-04T00:52:58;6.90;;;2.75;;
73776;SDS011;62088;50.240;2.696;2023-12-04T00:55:26;6.55;;;2.92;;
73776;SDS011;62088;50.240;2.696;2023-12-04T00:57:53;5.40;;;2.38;;
73776;SDS011;62088;50.240;2.696;2023-12-04T01:00:20;7.13;;;2.75;;
73776;SDS011;62088;50.240;2.696;2023-12-04T01:02:47;5.57;;;3.05;;
73776;SDS011;62088;50.240;2.696;2023-12-04T01:05:14;4.97;;;2.38;;
73776;SDS011;62088;50.240;2.696;2023-12-04T01:07:41;6.85;;;2.75;;
73776;SDS011;62088;50.240;2.696;2023-12-04T01:10:08;5.45;;;2.67;;
73776;SDS011;62088;50.240;2.696;2023-12-04T01:12:35;6.07;;;2.65;;
73776;SDS011;62088;50.240;2.696;2023-12-04T01:15:02;7.05;;;2.70;;
73776;SDS011;62088;50.240;2.696;2023-12-04T01:17:30;6.07;;;2.58;;
73776;SDS011;62088;50.240;2.696;2023-12-04T01:19:58;5.55;;;2.95;;
73776;SDS011;62088;50.240;2.696;2023-12-04T01:22:25;5.53;;;2.65;;
73776;SDS011;62088;50.240;2.696;2023-12-04T01:24:52;6.00;;;2.83;;
73776;SDS011;62088;50.240;2.696;2023-12-04T01:27:19;6.60;;;2.65;;
73776;SDS011;62088;50.240;2.696;2023-12-04T01:29:46;4.75;;;2.42;;
73776;SDS011;62088;50.240;2.696;2023-12-04T01:32:13;5.20;;;2.25;;
73776;SDS011;62088;50.240;2.696;2023-12-04T01:34:40;7.68;;;2.65;;
73776;SDS011;62088;50.240;2.696;2023-12-04T01:37:07;3.95;;;2.10;;
73776;SDS011;62088;50.240;2.696;2023-12-04T01:39:34;5.75;;;2.33;;
73776;SDS011;62088;50.240;2.696;2023-12-04T01:42:03;5.63;;;2.25;;
73776;SDS011;62088;50.240;2.696;2023-12-04T01:44:30;5.45;;;2.67;;
73776;SDS011;62088;50.240;2.696;2023-12-04T01:46:58;5.10;;;2.65;;
73776;SDS011;62088;50.240;2.696;2023-12-04T01:49:25;5.63;;;2.20;;
73776;SDS011;62088;50.240;2.696;2023-12-04T01:51:52;7.00;;;2.42;;
73776;SDS011;62088;50.240;2.696;2023-12-04T01:54:19;5.60;;;2.45;;
73776;SDS011;62088;50.240;2.696;2023-12-04T01:56:47;5.07;;;2.25;;
73776;SDS011;62088;50.240;2.696;2023-12-04T01:59:15;5.25;;;2.53;;
73776;SDS011;62088;50.240;2.696;2023-12-04T02:01:42;5.03;;;2.00;;
73776;SDS011;62088;50.240;2.696;2023-12-04T02:04:09;4.30;;;2.10;;
73776;SDS011;62088;50.240;2.696;2023-12-04T02:06:36;4.47;;;2.08;;
73776;SDS011;62088;50.240;2.696;2023-12-04T02:09:03;5.25;;;2.47;;
73776;SDS011;62088;50.240;2.696;2023-12-04T02:11:33;6.32;;;2.20;;
73776;SDS011;62088;50.240;2.696;2023-12-04T02:14:00;4.57;;;2.22;;
73776;SDS011;62088;50.240;2.696;2023-12-04T02:16:27;3.72;;;1.83;;
73776;SDS011;62088;50.240;2.696;2023-12-04T02:18:57;4.15;;;2.33;;
73776;SDS011;62088;50.240;2.696;2023-12-04T02:21:25;5.10;;;2.22;;
73776;SDS011;62088;50.240;2.696;2023-12-04T02:23:52;5.22;;;2.38;;
73776;SDS011;62088;50.240;2.696;2023-12-04T02:26:22;5.97;;;2.63;;
73776;SDS011;62088;50.240;2.696;2023-12-04T02:28:58;3.78;;;1.90;;
73776;SDS011;62088;50.240;2.696;2023-12-04T02:33:55;6.95;;;2.75;;
73776;SDS011;62088;50.240;2.696;2023-12-04T02:36:24;5.63;;;2.72;;
73776;SDS011;62088;50.240;2.696;2023-12-04T02:38:51;4.82;;;2.08;;
73776;SDS011;62088;50.240;2.696;2023-12-04T02:41:19;7.57;;;2.97;;
73776;SDS011;62088;50.240;2.696;2023-12-04T02:43:46;7.40;;;2.53;;
73776;SDS011;62088;50.240;2.696;2023-12-04T02:46:13;5.70;;;2.15;;
73776;SDS011;62088;50.240;2.696;2023-12-04T02:48:41;5.95;;;3.00;;
73776;SDS011;62088;50.240;2.696;2023-12-04T02:51:08;6.78;;;2.75;;
73776;SDS011;62088;50.240;2.696;2023-12-04T02:53:35;7.07;;;2.88;;
73776;SDS011;62088;50.240;2.696;2023-12-04T02:56:02;7.07;;;2.80;;
73776;SDS011;62088;50.240;2.696;2023-12-04T02:58:29;6.35;;;2.17;;
73776;SDS011;62088;50.240;2.696;2023-12-04T03:00:56;9.32;;;3.05;;
73776;SDS011;62088;50.240;2.696;2023-12-04T03:03:24;5.70;;;2.90;;
73776;SDS011;62088;50.240;2.696;2023-12-04T03:05:51;10.45;;;3.28;;
73776;SDS011;62088;50.240;2.696;2023-12-04T03:08:18;5.47;;;2.55;;
73776;SDS011;62088;50.240;2.696;2023-12-04T03:10:45;6.43;;;3.13;;
73776;SDS011;62088;50.240;2.696;2023-12-04T03:13:12;6.43;;;2.80;;
73776;SDS011;62088;50.240;2.696;2023-12-04T03:15:39;6.00;;;2.92;;
73776;SDS011;62088;50.240;2.696;2023-12-04T03:18:06;6.68;;;3.35;;
73776;SDS011;62088;50.240;2.696;2023-12-04T03:20:36;6.50;;;2.55;;
73776;SDS011;62088;50.240;2.696;2023-12-04T03:23:03;6.75;;;2.67;;
73776;SDS011;62088;50.240;2.696;2023-12-04T03:25:30;10.15;;;3.03;;
73776;SDS011;62088;50.240;2.696;2023-12-04T03:27:57;6.15;;;2.70;;
73776;SDS011;62088;50.240;2.696;2023-12-04T03:30:24;5.75;;;2.80;;
73776;SDS011;62088;50.240;2.696;2023-12-04T03:32:51;6.65;;;3.00;;
73776;SDS011;62088;50.240;2.696;2023-12-04T03:35:18;7.25;;;3.25;;
73776;SDS011;62088;50.240;2.696;2023-12-04T03:37:45;10.52;;;3.17;;
73776;SDS011;62088;50.240;2.696;2023-12-04T03:40:12;6.90;;;2.85;;
73776;SDS011;62088;50.240;2.696;2023-12-04T03:42:39;6.28;;;2.97;;
73776;SDS011;62088;50.240;2.696;2023-12-04T03:45:07;5.80;;;2.60;;
73776;SDS011;62088;50.240;2.696;2023-12-04T03:47:35;7.20;;;3.13;;
73776;SDS011;62088;50.240;2.696;2023-12-04T03:50:02;6.10;;;2.92;;
73776;SDS011;62088;50.240;2.696;2023-12-04T03:52:29;6.13;;;2.55;;
73776;SDS011;62088;50.240;2.696;2023-12-04T03:54:56;7.30;;;3.58;;
73776;SDS011;62088;50.240;2.696;2023-12-04T03:57:23;9.07;;;3.30;;
73776;SDS011;62088;50.240;2.696;2023-12-04T03:59:50;6.25;;;2.97;;
73776;SDS011;62088;50.240;2.696;2023-12-04T04:02:17;7.57;;;3.58;;
73776;SDS011;62088;50.240;2.696;2023-12-04T04:04:44;6.75;;;3.50;;
73776;SDS011;62088;50.240;2.696;2023-12-04T04:07:11;7.13;;;2.83;;
73776;SDS011;62088;50.240;2.696;2023-12-04T04:09:40;6.38;;;3.13;;
73776;SDS011;62088;50.240;2.696;2023-12-04T04:12:07;6.18;;;2.90;;
73776;SDS011;62088;50.240;2.696;2023-12-04T04:14:35;9.70;;;3.75;;
73776;SDS011;62088;50.240;2.696;2023-12-04T04:17:02;5.97;;;3.08;;
73776;SDS011;62088;50.240;2.696;2023-12-04T04:19:29;7.00;;;3.47;;
73776;SDS011;62088;50.240;2.696;2023-12-04T04:21:56;7.72;;;3.00;;
73776;SDS011;62088;50.240;2.696;2023-12-04T04:24:23;5.95;;;2.95;;
73776;SDS011;62088;50.240;2.696;2023-12-04T04:26:50;6.13;;;2.83;;
73776;SDS011;62088;50.240;2.696;2023-12-04T04:29:17;9.20;;;3.33;;
73776;SDS011;62088;50.240;2.696;2023-12-04T04:31:44;7.35;;;3.17;;
73776;SDS011;62088;50.240;2.696;2023-12-04T04:34:11;8.20;;;3.15;;
73776;SDS011;62088;50.240;2.696;2023-12-04T04:36:38;8.52;;;4.03;;
73776;SDS011;62088;50.240;2.696;2023-12-04T04:39:08;8.00;;;3.85;;
73776;SDS011;62088;50.240;2.696;2023-12-04T04:41:37;8.05;;;3.03;;
73776;SDS011;62088;50.240;2.696;2023-12-04T04:44:04;6.20;;;3.58;;
73776;SDS011;62088;50.240;2.696;2023-12-04T04:46:31;7.78;;;3.15;;
73776;SDS011;62088;50.240;2.696;2023-12-04T04:49:16;6.22;;;3.05;;
73776;SDS011;62088;50.240;2.696;2023-12-04T04:51:44;7.25;;;3.63;;
73776;SDS011;62088;50.240;2.696;2023-12-04T04:54:11;7.75;;;2.90;;
73776;SDS011;62088;50.240;2.696;2023-12-04T04:56:38;12.50;;;3.78;;
73776;SDS011;62088;50.240;2.696;2023-12-04T04:59:05;8.35;;;3.63;;
73776;SDS011;62088;50.240;2.696;2023-12-04T05:01:32;5.93;;;2.75;;
73776;SDS011;62088;50.240;2.696;2023-12-04T05:03:59;7.63;;;3.30;;
73776;SDS011;62088;50.240;2.696;2023-12-04T05:06:26;5.72;;;2.92;;
73776;SDS011;62088;50.240;2.696;2023-12-04T05:08:53;10.27;;;3.35;;
73776;SDS011;62088;50.240;2.696;2023-12-04T05:11:20;10.45;;;3.17;;
73776;SDS011;62088;50.240;2.696;2023-12-04T05:13:47;5.80;;;2.85;;
73776;SDS011;62088;50.240;2.696;2023-12-04T05:16:14;6.28;;;3.60;;
73776;SDS011;62088;50.240;2.696;2023-12-04T05:18:41;5.53;;;2.80;;
73776;SDS011;62088;50.240;2.696;2023-12-04T05:21:09;8.82;;;3.55;;
73776;SDS011;62088;50.240;2.696;2023-12-04T05:23:37;7.22;;;2.97;;
73776;SDS011;62088;50.240;2.696;2023-12-04T05:26:05;8.38;;;3.15;;
73776;SDS011;62088;50.240;2.696;2023-12-04T05:28:33;7.57;;;2.95;;
73776;SDS011;62088;50.240;2.696;2023-12-04T05:31:00;7.30;;;3.33;;
73776;SDS011;62088;50.240;2.696;2023-12-04T05:33:27;6.93;;;3.75;;
73776;SDS011;62088;50.240;2.696;2023-12-04T05:35:55;7.18;;;3.38;;
73776;SDS011;62088;50.240;2.696;2023-12-04T05:38:22;7.40;;;3.20;;
73776;SDS011;62088;50.240;2.696;2023-12-04T05:40:49;10.13;;;3.95;;
73776;SDS011;62088;50.240;2.696;2023-12-04T05:43:16;6.45;;;3.13;;
73776;SDS011;62088;50.240;2.696;2023-12-04T05:45:43;6.63;;;3.30;;
73776;SDS011;62088;50.240;2.696;2023-12-04T05:48:10;7.85;;;3.50;;
73776;SDS011;62088;50.240;2.696;2023-12-04T05:50:37;6.20;;;3.40;;
73776;SDS011;62088;50.240;2.696;2023-12-04T05:53:05;6.97;;;3.30;;
73776;SDS011;62088;50.240;2.696;2023-12-04T05:55:33;6.85;;;3.47;;
73776;SDS011;62088;50.240;2.696;2023-12-04T05:58:00;8.50;;;3.72;;
73776;SDS011;62088;50.240;2.696;2023-12-04T06:00:28;5.88;;;3.47;;
73776;SDS011;62088;50.240;2.696;2023-12-04T06:02:55;5.78;;;2.75;;
73776;SDS011;62088;50.240;2.696;2023-12-04T06:05:22;8.70;;;3.80;;
73776;SDS011;62088;50.240;2.696;2023-12-04T06:07:50;6.93;;;2.80;;
73776;SDS011;62088;50.240;2.696;2023-12-04T06:10:17;4.50;;;2.50;;
73776;SDS011;62088;50.240;2.696;2023-12-04T06:12:44;8.00;;;3.65;;
73776;SDS011;62088;50.240;2.696;2023-12-04T06:15:11;7.50;;;2.65;;
73776;SDS011;62088;50.240;2.696;2023-12-04T06:17:38;5.22;;;2.70;;
73776;SDS011;62088;50.240;2.696;2023-12-04T06:20:06;6.60;;;3.00;;
73776;SDS011;62088;50.240;2.696;2023-12-04T06:22:33;4.93;;;2.65;;
73776;SDS011;62088;50.240;2.696;2023-12-04T06:25:01;6.75;;;3.30;;
73776;SDS011;62088;50.240;2.696;2023-12-04T06:27:28;4.88;;;2.53;;
73776;SDS011;62088;50.240;2.696;2023-12-04T06:29:55;10.00;;;3.10;;
73776;SDS011;62088;50.240;2.696;2023-12-04T06:32:23;8.25;;;2.85;;
73776;SDS011;62088;50.240;2.696;2023-12-04T06:34:50;7.45;;;3.40;;
73776;SDS011;62088;50.240;2.696;2023-12-04T06:37:17;8.07;;;3.50;;
73776;SDS011;62088;50.240;2.696;2023-12-04T06:39:45;8.73;;;3.35;;
73776;SDS011;62088;50.240;2.696;2023-12-04T06:42:16;7.18;;;3.13;;
73776;SDS011;62088;50.240;2.696;2023-12-04T06:44:43;4.45;;;2.35;;
73776;SDS011;62088;50.240;2.696;2023-12-04T06:47:11;8.38;;;3.15;;
73776;SDS011;62088;50.240;2.696;2023-12-04T06:49:39;6.90;;;3.28;;
73776;SDS011;62088;50.240;2.696;2023-12-04T06:52:06;5.90;;;2.90;;
73776;SDS011;62088;50.240;2.696;2023-12-04T06:54:33;7.05;;;2.67;;
73776;SDS011;62088;50.240;2.696;2023-12-04T06:57:00;8.07;;;2.97;;
73776;SDS011;62088;50.240;2.696;2023-12-04T06:59:27;5.35;;;2.60;;
73776;SDS011;62088;50.240;2.696;2023-12-04T07:01:54;6.45;;;3.10;;
73776;SDS011;62088;50.240;2.696;2023-12-04T07:04:22;5.68;;;3.08;;
73776;SDS011;62088;50.240;2.696;2023-12-04T07:06:49;6.75;;;3.40;;
73776;SDS011;62088;50.240;2.696;2023-12-04T07:09:16;8.07;;;3.92;;
73776;SDS011;62088;50.240;2.696;2023-12-04T07:11:43;9.15;;;4.18;;
73776;SDS011;62088;50.240;2.696;2023-12-04T07:14:10;6.85;;;3.75;;
73776;SDS011;62088;50.240;2.696;2023-12-04T07:16:39;8.18;;;3.70;;
73776;SDS011;62088;50.240;2.696;2023-12-04T07:19:09;9.35;;;3.28;;
73776;SDS011;62088;50.240;2.696;2023-12-04T07:21:37;5.35;;;2.65;;
73776;SDS011;62088;50.240;2.696;2023-12-04T07:24:05;7.07;;;3.58;;
73776;SDS011;62088;50.240;2.696;2023-12-04T07:26:33;6.32;;;3.30;;
73776;SDS011;62088;50.240;2.696;2023-12-04T07:29:02;6.15;;;3.55;;
73776;SDS011;62088;50.240;2.696;2023-12-04T07:31:29;6.07;;;3.15;;
73776;SDS011;62088;50.240;2.696;2023-12-04T07:33:57;18.25;;;3.10;;
73776;SDS011;62088;50.240;2.696;2023-12-04T07:36:27;5.90;;;2.78;;
73776;SDS011;62088;50.240;2.696;2023-12-04T07:38:55;5.57;;;3.03;;
73776;SDS011;62088;50.240;2.696;2023-12-04T07:41:22;7.95;;;3.72;;
73776;SDS011;62088;50.240;2.696;2023-12-04T07:43:49;6.50;;;2.67;;
73776;SDS011;62088;50.240;2.696;2023-12-04T07:46:15;6.60;;;2.95;;
73776;SDS011;62088;50.240;2.696;2023-12-04T07:48:43;6.30;;;2.85;;
73776;SDS011;62088;50.240;2.696;2023-12-04T07:51:10;6.75;;;3.72;;
73776;SDS011;62088;50.240;2.696;2023-12-04T07:53:37;7.35;;;2.85;;
73776;SDS011;62088;50.240;2.696;2023-12-04T07:56:04;6.65;;;2.97;;
73776;SDS011;62088;50.240;2.696;2023-12-04T07:58:32;6.53;;;3.30;;
73776;SDS011;62088;50.240;2.696;2023-12-04T08:00:59;6.20;;;2.60;;
73776;SDS011;62088;50.240;2.696;2023-12-04T08:03:26;5.80;;;2.78;;
73776;SDS011;62088;50.240;2.696;2023-12-04T08:05:53;7.47;;;3.10;;
73776;SDS011;62088;50.240;2.696;2023-12-04T08:08:21;6.90;;;3.38;;
73776;SDS011;62088;50.240;2.696;2023-12-04T08:10:48;6.07;;;2.50;;
73776;SDS011;62088;50.240;2.696;2023-12-04T08:13:15;8.63;;;3.15;;
73776;SDS011;62088;50.240;2.696;2023-12-04T08:15:43;10.27;;;3.35;;
73776;SDS011;62088;50.240;2.696;2023-12-04T08:18:11;6.20;;;2.78;;
73776;SDS011;62088;50.240;2.696;2023-12-04T08:20:38;5.05;;;2.88;;
73776;SDS011;62088;50.240;2.696;2023-12-04T08:23:07;6.10;;;2.67;;
73776;SDS011;62088;50.240;2.696;2023-12-04T08:25:35;6.07;;;2.58;;
73776;SDS011;62088;50.240;2.696;2023-12-04T08:28:05;5.05;;;2.55;;
73776;SDS011;62088;50.240;2.696;2023-12-04T08:30:33;6.05;;;3.03;;
73776;SDS011;62088;50.240;2.696;2023-12-04T08:33:00;7.32;;;3.03;;
73776;SDS011;62088;50.240;2.696;2023-12-04T08:35:27;6.28;;;3.08;;
73776;SDS011;62088;50.240;2.696;2023-12-04T08:37:54;8.20;;;3.28;;
73776;SDS011;62088;50.240;2.696;2023-12-04T08:40:21;5.47;;;2.58;;
73776;SDS011;62088;50.240;2.696;2023-12-04T08:42:48;5.45;;;3.08;;
73776;SDS011;62088;50.240;2.696;2023-12-04T08:45:15;5.18;;;2.85;;
73776;SDS011;62088;50.240;2.696;2023-12-04T08:47:45;5.40;;;2.78;;
73776;SDS011;62088;50.240;2.696;2023-12-04T08:50:12;7.60;;;3.28;;
73776;SDS011;62088;50.240;2.696;2023-12-04T08:52:40;6.63;;;3.53;;
73776;SDS011;62088;50.240;2.696;2023-12-04T08:55:09;5.85;;;3.08;;
73776;SDS011;62088;50.240;2.696;2023-12-04T08:57:37;6.18;;;2.67;;
73776;SDS011;62088;50.240;2.696;2023-12-04T09:00:04;7.40;;;3.50;;
73776;SDS011;62088;50.240;2.696;2023-12-04T09:02:32;5.70;;;3.15;;
73776;SDS011;62088;50.240;2.696;2023-12-04T09:04:59;7.25;;;3.30;;
73776;SDS011;62088;50.240;2.696;2023-12-04T09:07:27;11.13;;;2.90;;
73776;SDS011;62088;50.240;2.696;2023-12-04T09:09:57;8.13;;;2.85;;
73776;SDS011;62088;50.240;2.696;2023-12-04T09:12:31;5.22;;;2.78;;
73776;SDS011;62088;50.240;2.696;2023-12-04T09:14:59;6.25;;;2.90;;
73776;SDS011;62088;50.240;2.696;2023-12-04T09:17:25;10.00;;;3.00;;
73776;SDS011;62088;50.240;2.696;2023-12-04T09:20:02;4.88;;;2.22;;
73776;SDS011;62088;50.240;2.696;2023-12-04T09:22:29;5.38;;;2.50;;
73776;SDS011;62088;50.240;2.696;2023-12-04T09:25:11;4.57;;;2.03;;
73776;SDS011;62088;50.240;2.696;2023-12-04T09:27:39;6.97;;;3.38;;
73776;SDS011;62088;50.240;2.696;2023-12-04T09:30:06;6.28;;;2.88;;
73776;SDS011;62088;50.240;2.696;2023-12-04T09:32:34;7.25;;;3.15;;
73776;SDS011;62088;50.240;2.696;2023-12-04T09:35:01;6.07;;;2.55;;
73776;SDS011;62088;50.240;2.696;2023-12-04T09:37:28;5.13;;;2.47;;
73776;SDS011;62088;50.240;2.696;2023-12-04T09:39:55;4.95;;;2.67;;
73776;SDS011;62088;50.240;2.696;2023-12-04T09:42:22;4.55;;;2.03;;
73776;SDS011;62088;50.240;2.696;2023-12-04T09:44:50;4.97;;;2.45;;
73776;SDS011;62088;50.240;2.696;2023-12-04T09:47:19;4.43;;;2.20;;
73776;SDS011;62088;50.240;2.696;2023-12-04T09:49:48;4.93;;;2.45;;
73776;SDS011;62088;50.240;2.696;2023-12-04T09:52:19;4.18;;;2.15;;
73776;SDS011;62088;50.240;2.696;2023-12-04T09:54:46;4.72;;;2.00;;
73776;SDS011;62088;50.240;2.696;2023-12-04T09:57:13;5.47;;;2.58;;
73776;SDS011;62088;50.240;2.696;2023-12-04T09:59:41;5.75;;;2.50;;
73776;SDS011;62088;50.240;2.696;2023-12-04T10:02:11;4.13;;;1.83;;
73776;SDS011;62088;50.240;2.696;2023-12-04T10:04:39;4.15;;;2.05;;
73776;SDS011;62088;50.240;2.696;2023-12-04T10:07:08;3.90;;;2.00;;
73776;SDS011;62088;50.240;2.696;2023-12-04T10:09:35;3.53;;;1.90;;
73776;SDS011;62088;50.240;2.696;2023-12-04T10:12:03;5.00;;;2.47;;
73776;SDS011;62088;50.240;2.696;2023-12-04T10:14:32;3.67;;;2.05;;
73776;SDS011;62088;50.240;2.696;2023-12-04T10:16:59;3.90;;;1.73;;
73776;SDS011;62088;50.240;2.696;2023-12-04T10:19:39;2.97;;;1.77;;
73776;SDS011;62088;50.240;2.696;2023-12-04T10:22:07;6.05;;;2.08;;
73776;SDS011;62088;50.240;2.696;2023-12-04T10:24:38;4.32;;;1.88;;
73776;SDS011;62088;50.240;2.696;2023-12-04T10:27:06;4.93;;;2.53;;
73776;SDS011;62088;50.240;2.696;2023-12-04T10:32:10;4.13;;;1.80;;
73776;SDS011;62088;50.240;2.696;2023-12-04T10:34:37;4.50;;;2.13;;
73776;SDS011;62088;50.240;2.696;2023-12-04T10:37:05;3.35;;;1.88;;
73776;SDS011;62088;50.240;2.696;2023-12-04T10:39:36;3.90;;;1.88;;
73776;SDS011;62088;50.240;2.696;2023-12-04T10:42:25;3.45;;;1.67;;
73776;SDS011;62088;50.240;2.696;2023-12-04T10:44:56;4.15;;;2.13;;
73776;SDS011;62088;50.240;2.696;2023-12-04T10:47:24;4.78;;;2.17;;
73776;SDS011;62088;50.240;2.696;2023-12-04T10:49:52;5.07;;;2.50;;
73776;SDS011;62088;50.240;2.696;2023-12-04T10:52:19;5.32;;;2.00;;
73776;SDS011;62088;50.240;2.696;2023-12-04T10:54:48;6.28;;;1.98;;
73776;SDS011;62088;50.240;2.696;2023-12-04T10:57:49;5.32;;;1.90;;
73776;SDS011;62088;50.240;2.696;2023-12-04T11:00:10;5.47;;;2.25;;
73776;SDS011;62088;50.240;2.696;2023-12-04T11:02:43;3.83;;;2.03;;
73776;SDS011;62088;50.240;2.696;2023-12-04T11:05:33;5.30;;;2.53;;
73776;SDS011;62088;50.240;2.696;2023-12-04T11:08:05;4.07;;;1.75;;
73776;SDS011;62088;50.240;2.696;2023-12-04T11:11:05;4.78;;;1.77;;
73776;SDS011;62088;50.240;2.696;2023-12-04T11:13:34;4.88;;;2.17;;
73776;SDS011;62088;50.240;2.696;2023-12-04T11:16:38;4.38;;;2.10;;
73776;SDS011;62088;50.240;2.696;2023-12-04T11:22:12;4.03;;;2.10;;
73776;SDS011;62088;50.240;2.696;2023-12-04T11:24:41;3.38;;;1.85;;
73776;SDS011;62088;50.240;2.696;2023-12-04T11:27:09;5.43;;;3.05;;
73776;SDS011;62088;50.240;2.696;2023-12-04T11:29:36;4.63;;;2.25;;
73776;SDS011;62088;50.240;2.696;2023-12-04T11:32:06;5.30;;;2.30;;
73776;SDS011;62088;50.240;2.696;2023-12-04T11:34:36;7.60;;;2.97;;
73776;SDS011;62088;50.240;2.696;2023-12-04T11:37:03;5.28;;;2.28;;
73776;SDS011;62088;50.240;2.696;2023-12-04T11:39:33;5.75;;;2.10;;
73776;SDS011;62088;50.240;2.696;2023-12-04T11:42:02;4.00;;;2.00;;
73776;SDS011;62088;50.240;2.696;2023-12-04T11:44:33;4.47;;;2.60;;
73776;SDS011;62088;50.240;2.696;2023-12-04T11:47:04;3.03;;;1.52;;
73776;SDS011;62088;50.240;2.696;2023-12-04T11:49:32;3.50;;;1.67;;
73776;SDS011;62088;50.240;2.696;2023-12-04T11:52:00;4.72;;;2.30;;
73776;SDS011;62088;50.240;2.696;2023-12-04T11:54:55;4.55;;;1.88;;
73776;SDS011;62088;50.240;2.696;2023-12-04T11:57:37;8.15;;;2.75;;
73776;SDS011;62088;50.240;2.696;2023-12-04T12:03:00;7.32;;;2.72;;
73776;SDS011;62088;50.240;2.696;2023-12-04T12:05:48;3.80;;;2.13;;
73776;SDS011;62088;50.240;2.696;2023-12-04T12:08:19;4.22;;;1.60;;
73776;SDS011;62088;50.240;2.696;2023-12-04T12:10:47;4.63;;;2.25;;
73776;SDS011;62088;50.240;2.696;2023-12-04T12:13:14;3.65;;;1.80;;
73776;SDS011;62088;50.240;2.696;2023-12-04T12:15:42;6.68;;;2.70;;
73776;SDS011;62088;50.240;2.696;2023-12-04T12:18:09;4.38;;;2.20;;
73776;SDS011;62088;50.240;2.696;2023-12-04T12:20:37;3.72;;;2.08;;
73776;SDS011;62088;50.240;2.696;2023-12-04T12:23:04;4.57;;;2.55;;
73776;SDS011;62088;50.240;2.696;2023-12-04T12:25:31;5.25;;;2.33;;
73776;SDS011;62088;50.240;2.696;2023-12-04T12:28:01;5.18;;;2.28;;
73776;SDS011;62088;50.240;2.696;2023-12-04T12:30:29;4.70;;;2.10;;
73776;SDS011;62088;50.240;2.696;2023-12-04T12:32:57;3.72;;;1.85;;
73776;SDS011;62088;50.240;2.696;2023-12-04T12:35:24;4.28;;;2.03;;
73776;SDS011;62088;50.240;2.696;2023-12-04T12:37:51;4.30;;;2.17;;
73776;SDS011;62088;50.240;2.696;2023-12-04T12:40:21;5.82;;;3.20;;
73776;SDS011;62088;50.240;2.696;2023-12-04T12:42:48;5.78;;;2.65;;
73776;SDS011;62088;50.240;2.696;2023-12-04T12:45:17;5.10;;;2.30;;
73776;SDS011;62088;50.240;2.696;2023-12-04T12:47:45;4.82;;;2.40;;
73776;SDS011;62088;50.240;2.696;2023-12-04T12:50:12;4.25;;;2.20;;
73776;SDS011;62088;50.240;2.696;2023-12-04T12:52:42;5.05;;;2.55;;
73776;SDS011;62088;50.240;2.696;2023-12-04T12:55:09;6.75;;;3.00;;
73776;SDS011;62088;50.240;2.696;2023-12-04T12:57:36;4.70;;;2.65;;
73776;SDS011;62088;50.240;2.696;2023-12-04T13:00:04;8.95;;;3.30;;
73776;SDS011;62088;50.240;2.696;2023-12-04T13:02:34;4.78;;;2.70;;
73776;SDS011;62088;50.240;2.696;2023-12-04T13:05:03;8.02;;;3.53;;
73776;SDS011;62088;50.240;2.696;2023-12-04T13:07:31;6.50;;;2.67;;
73776;SDS011;62088;50.240;2.696;2023-12-04T13:09:58;3.97;;;2.28;;
73776;SDS011;62088;50.240;2.696;2023-12-04T13:12:25;4.03;;;1.92;;
73776;SDS011;62088;50.240;2.696;2023-12-04T13:14:52;4.55;;;2.20;;
73776;SDS011;62088;50.240;2.696;2023-12-04T13:17:20;4.47;;;2.45;;
73776;SDS011;62088;50.240;2.696;2023-12-04T13:19:47;4.63;;;2.40;;
73776;SDS011;62088;50.240;2.696;2023-12-04T13:22:14;5.95;;;2.28;;
73776;SDS011;62088;50.240;2.696;2023-12-04T13:24:41;4.30;;;2.50;;
73776;SDS011;62088;50.240;2.696;2023-12-04T13:27:08;6.60;;;3.78;;
73776;SDS011;62088;50.240;2.696;2023-12-04T13:29:35;5.20;;;2.90;;
73776;SDS011;62088;50.240;2.696;2023-12-04T13:32:03;10.75;;;2.38;;
73776;SDS011;62088;50.240;2.696;2023-12-04T13:34:31;3.78;;;1.98;;
73776;SDS011;62088;50.240;2.696;2023-12-04T13:36:58;6.10;;;2.58;;
73776;SDS011;62088;50.240;2.696;2023-12-04T13:39:25;6.15;;;2.78;;
73776;SDS011;62088;50.240;2.696;2023-12-04T13:42:13;7.45;;;2.97;;
73776;SDS011;62088;50.240;2.696;2023-12-04T13:45:00;5.93;;;2.80;;
73776;SDS011;62088;50.240;2.696;2023-12-04T13:47:28;6.85;;;2.90;;
73776;SDS011;62088;50.240;2.696;2023-12-04T13:49:55;5.28;;;2.90;;
73776;SDS011;62088;50.240;2.696;2023-12-04T13:52:24;5.78;;;2.78;;
73776;SDS011;62088;50.240;2.696;2023-12-04T13:54:55;5.68;;;2.67;;
73776;SDS011;62088;50.240;2.696;2023-12-04T13:57:23;6.60;;;3.38;;
73776;SDS011;62088;50.240;2.696;2023-12-04T14:00:00;4.50;;;2.40;;
73776;SDS011;62088;50.240;2.696;2023-12-04T14:02:29;7.30;;;2.78;;
73776;SDS011;62088;50.240;2.696;2023-12-04T14:04:56;6.15;;;2.83;;
73776;SDS011;62088;50.240;2.696;2023-12-04T14:07:24;6.03;;;2.83;;
73776;SDS011;62088;50.240;2.696;2023-12-04T14:09:52;8.68;;;2.83;;
73776;SDS011;62088;50.240;2.696;2023-12-04T14:12:19;5.70;;;2.40;;
73776;SDS011;62088;50.240;2.696;2023-12-04T14:14:47;5.53;;;2.83;;
73776;SDS011;62088;50.240;2.696;2023-12-04T14:17:14;9.05;;;3.35;;
73776;SDS011;62088;50.240;2.696;2023-12-04T14:19:42;6.05;;;2.65;;
73776;SDS011;62088;50.240;2.696;2023-12-04T14:22:09;6.80;;;3.30;;
73776;SDS011;62088;50.240;2.696;2023-12-04T14:24:36;5.63;;;2.90;;
73776;SDS011;62088;50.240;2.696;2023-12-04T14:27:04;5.00;;;2.55;;
73776;SDS011;62088;50.240;2.696;2023-12-04T14:29:32;5.95;;;3.15;;
73776;SDS011;62088;50.240;2.696;2023-12-04T14:32:00;5.70;;;3.60;;
73776;SDS011;62088;50.240;2.696;2023-12-04T14:34:27;8.85;;;3.40;;
73776;SDS011;62088;50.240;2.696;2023-12-04T14:36:55;9.85;;;2.92;;
73776;SDS011;62088;50.240;2.696;2023-12-04T14:39:22;5.28;;;2.80;;
73776;SDS011;62088;50.240;2.696;2023-12-04T14:41:50;8.38;;;3.65;;
73776;SDS011;62088;50.240;2.696;2023-12-04T14:44:17;7.25;;;3.22;;
73776;SDS011;62088;50.240;2.696;2023-12-04T14:46:44;8.50;;;3.08;;
73776;SDS011;62088;50.240;2.696;2023-12-04T14:49:12;8.57;;;3.92;;
73776;SDS011;62088;50.240;2.696;2023-12-04T14:51:39;5.55;;;3.15;;
73776;SDS011;62088;50.240;2.696;2023-12-04T14:54:06;9.45;;;4.72;;
73776;SDS011;62088;50.240;2.696;2023-12-04T14:56:41;12.05;;;4.13;;
73776;SDS011;62088;50.240;2.696;2023-12-04T14:59:35;8.17;;;3.77;;
73776;SDS011;62088;50.240;2.696;2023-12-04T15:02:20;8.40;;;3.45;;
73776;SDS011;62088;50.240;2.696;2023-12-04T15:05:06;7.85;;;3.90;;
73776;SDS011;62088;50.240;2.696;2023-12-04T15:07:36;10.35;;;5.28;;